Terminal Aerodrome Forecast
Issued by NWS

Home | Current Version | Previous Version | Text Only | Print | Product List | Glossary On
Versions: 1 2 3 4 5 6 7 8 9 10 11 12 13 14 15 16 17 18 19 20 21 22 23
000
FTUS45 KSLC 281725
TAF36U
TAF
K36U 281725Z 2818/2918 VRB04KT P6SM VCSH SCT080 BKN100
     FM282000 VRB05KT P6SM VCTS SCT070CB BKN100
     FM290300 VRB03KT P6SM VCSH SCT070 BKN100=

USA.gov is the U.S. government's official web portal to all federal, state and local government web resources and services.